createdAt,value
2019-05-09T00:04:33.506Z,74.11
2019-05-09T00:09:53.377Z,74.64
2019-05-09T00:15:13.664Z,74.79
2019-05-09T00:20:34.016Z,74.69
2019-05-09T00:25:53.812Z,75.22
2019-05-09T00:31:14.144Z,75.01
2019-05-09T00:36:33.485Z,74.56
2019-05-09T00:41:53.889Z,74.45
2019-05-09T00:47:20.051Z,74.36
2019-05-09T00:52:38.731Z,74.90
2019-05-09T00:57:57.288Z,75.04
2019-05-09T01:03:15.857Z,75.26
2019-05-09T01:08:34.420Z,75.43
2019-05-09T01:13:54.340Z,75.72
2019-05-09T01:19:14.245Z,75.59
2019-05-09T01:24:33.967Z,75.46
2019-05-09T01:29:53.554Z,75.43
2019-05-09T01:35:13.186Z,75.22
2019-05-09T01:40:33.232Z,75.21
2019-05-09T01:45:53.909Z,75.04
2019-05-09T01:51:13.863Z,74.43
2019-05-09T01:56:33.867Z,74.04
2019-05-09T02:01:54.117Z,74.15
2019-05-09T02:07:13.444Z,73.82
2019-05-09T02:12:33.900Z,73.03
2019-05-09T02:18:01.419Z,73.01
2019-05-09T02:23:14.652Z,73.04
2019-05-09T02:28:34.111Z,72.88
2019-05-09T02:33:54.184Z,72.88
2019-05-09T02:39:13.097Z,72.40
2019-05-09T02:44:31.741Z,72.68
2019-05-09T02:49:50.493Z,72.70
2019-05-09T02:55:10.755Z,72.51
2019-05-09T03:00:39.680Z,73.13
2019-05-09T03:05:59.767Z,72.99
2019-05-09T03:11:18.970Z,73.23
2019-05-09T03:16:39.750Z,73.71
2019-05-09T03:22:02.381Z,73.65
2019-05-09T03:27:28.507Z,73.60
2019-05-09T03:32:48.881Z,74.05
2019-05-09T03:38:08.150Z,74.14
2019-05-09T03:43:27.493Z,74.62
2019-05-09T03:48:47.910Z,74.48
2019-05-09T03:54:08.069Z,75.22
2019-05-09T03:59:27.850Z,75.28
2019-05-09T04:04:47.576Z,75.26
2019-05-09T04:10:07.838Z,75.45
2019-05-09T04:15:27.489Z,75.30
2019-05-09T04:20:48.197Z,75.35
2019-05-09T04:26:08.406Z,75.08
2019-05-09T04:31:28.017Z,74.74
2019-05-09T04:36:48.328Z,71.48
2019-05-09T04:42:08.376Z,66.19
2019-05-09T04:47:27.873Z,64.04
2019-05-09T04:52:47.525Z,62.86
2019-05-09T04:58:06.369Z,58.83
2019-05-09T05:03:25.019Z,58.41
2019-05-09T05:08:43.675Z,59.42
2019-05-09T05:14:02.330Z,57.23
2019-05-09T05:19:21.102Z,57.58
2019-05-09T05:24:41.414Z,56.54
2019-05-09T05:30:00.107Z,54.61
2019-05-09T05:35:37.568Z,55.23
2019-05-09T05:40:57.845Z,56.20
2019-05-09T05:46:30.532Z,57.58
2019-05-09T05:51:49.187Z,58.36
2019-05-09T05:57:08.507Z,57.45
2019-05-09T06:02:28.137Z,52.88
2019-05-09T06:07:48.322Z,48.53
2019-05-09T06:13:07.955Z,48.06
2019-05-09T06:18:27.592Z,46.87
2019-05-09T06:23:48.225Z,49.19
2019-05-09T06:29:08.077Z,49.19
2019-05-09T06:34:27.785Z,46.56
2019-05-09T06:39:48.473Z,46.94
2019-05-09T06:45:14.632Z,46.33
2019-05-09T06:50:33.230Z,45.00
2019-05-09T06:55:51.871Z,45.68
2019-05-09T07:01:12.259Z,44.89
2019-05-09T07:06:41.964Z,43.69
2019-05-09T07:12:01.642Z,45.16
2019-05-09T07:17:20.200Z,42.51
2019-05-09T07:22:43.438Z,41.54
2019-05-09T07:28:02.109Z,44.05
2019-05-09T07:33:23.162Z,46.41
2019-05-09T07:38:41.818Z,47.14
2019-05-09T07:44:00.428Z,46.02
2019-05-09T07:49:19.116Z,44.46
2019-05-09T07:54:37.894Z,43.77
2019-05-09T07:59:58.404Z,41.99
2019-05-09T08:05:21.364Z,42.21
2019-05-09T08:10:39.863Z,43.14
2019-05-09T08:15:58.722Z,41.09
2019-05-09T08:21:18.193Z,44.11
2019-05-09T08:26:39.331Z,46.51
2019-05-09T08:31:58.213Z,46.78
2019-05-09T08:37:18.799Z,47.54
2019-05-09T08:42:37.994Z,48.21
2019-05-09T08:47:57.736Z,46.46
2019-05-09T08:53:18.862Z,44.50
2019-05-09T08:58:38.206Z,45.79
2019-05-09T09:03:57.650Z,46.24
2019-05-09T09:09:18.001Z,46.80
2019-05-09T09:14:38.512Z,45.39
2019-05-09T09:19:58.383Z,46.49
2019-05-09T09:25:18.397Z,46.56
2019-05-09T09:30:38.611Z,48.10
2019-05-09T09:35:58.041Z,47.74
2019-05-09T09:41:18.148Z,47.25
2019-05-09T09:46:37.507Z,46.11
2019-05-09T09:51:58.126Z,46.62
2019-05-09T09:57:19.058Z,46.51
2019-05-09T10:02:38.327Z,45.14
2019-05-09T10:07:58.179Z,44.02
2019-05-09T10:13:18.545Z,46.76
2019-05-09T10:18:41.765Z,46.77
2019-05-09T10:24:00.462Z,44.64
2019-05-09T10:29:19.032Z,46.64
2019-05-09T10:34:37.977Z,47.10
2019-05-09T10:39:58.036Z,47.41
2019-05-09T10:45:30.698Z,49.43
2019-05-09T10:50:53.805Z,49.60
2019-05-09T10:56:09.678Z,47.59
2019-05-09T11:01:29.534Z,46.85
2019-05-09T11:06:48.291Z,47.52
2019-05-09T11:12:07.872Z,43.09
2019-05-09T11:17:28.632Z,46.58
2019-05-09T11:22:47.049Z,45.93
2019-05-09T11:28:12.638Z,46.00
2019-05-09T11:33:27.805Z,46.80
2019-05-09T11:38:49.466Z,49.60
2019-05-09T11:44:08.554Z,46.83
2019-05-09T11:49:29.528Z,47.54
2019-05-09T11:54:48.304Z,47.50
2019-05-09T12:00:08.358Z,47.72
2019-05-09T12:05:28.761Z,47.10
2019-05-09T12:10:47.857Z,46.16
2019-05-09T12:16:06.552Z,47.35
2019-05-09T12:21:25.182Z,46.41
2019-05-09T12:26:43.815Z,45.37
2019-05-09T12:32:02.458Z,45.18
2019-05-09T12:37:21.158Z,46.36
2019-05-09T12:42:39.965Z,45.67
2019-05-09T12:48:11.043Z,45.44
2019-05-09T12:53:19.930Z,44.74
2019-05-09T12:58:39.141Z,46.67
2019-05-09T13:03:58.410Z,45.86
2019-05-09T13:09:17.960Z,45.49
2019-05-09T13:14:38.012Z,44.40
2019-05-09T13:19:58.554Z,46.99
2019-05-09T13:25:18.917Z,47.27
2019-05-09T13:30:38.117Z,41.99
2019-05-09T13:35:58.408Z,44.11
2019-05-09T13:41:17.788Z,44.89
2019-05-09T13:46:38.776Z,45.27
2019-05-09T13:52:03.950Z,45.12
2019-05-09T13:57:18.762Z,48.01
2019-05-09T14:02:38.449Z,46.83
2019-05-09T14:08:12.107Z,49.07
2019-05-09T14:13:30.717Z,47.88
2019-05-09T14:18:49.355Z,48.65
2019-05-09T14:24:14.837Z,48.82
2019-05-09T14:29:31.524Z,48.06
2019-05-09T14:34:50.759Z,47.36
2019-05-09T14:40:10.463Z,47.65
2019-05-09T14:45:29.314Z,48.04
2019-05-09T14:50:51.680Z,45.18
2019-05-09T14:56:10.923Z,46.44
2019-05-09T15:01:45.077Z,45.28
2019-05-09T15:06:59.358Z,46.48
2019-05-09T15:12:21.184Z,47.79
2019-05-09T15:17:40.847Z,48.51
2019-05-09T15:23:00.277Z,49.08
2019-05-09T15:28:19.181Z,50.81
2019-05-09T15:33:37.926Z,47.96
2019-05-09T15:38:59.141Z,47.89
2019-05-09T15:44:18.728Z,48.64
2019-05-09T15:49:38.543Z,48.60
2019-05-09T15:54:58.091Z,47.86
2019-05-09T16:00:20.517Z,47.51
2019-05-09T16:05:41.111Z,46.68
2019-05-09T16:11:02.712Z,46.94
2019-05-09T16:16:22.079Z,47.33
2019-05-09T16:21:41.018Z,47.22
2019-05-09T16:26:59.783Z,47.70
2019-05-09T16:32:18.449Z,47.61
2019-05-09T16:37:57.386Z,48.79
2019-05-09T16:42:58.185Z,46.19
2019-05-09T16:48:18.473Z,47.65
2019-05-09T16:53:37.803Z,48.24
2019-05-09T16:58:57.862Z,47.17
2019-05-09T17:04:19.129Z,47.07
2019-05-09T17:09:40.061Z,46.26
2019-05-09T17:14:59.733Z,46.41
2019-05-09T17:20:32.239Z,48.28
2019-05-09T17:25:51.063Z,48.73
2019-05-09T17:31:09.841Z,49.85
2019-05-09T17:36:28.737Z,50.85
2019-05-09T17:41:47.421Z,51.69
2019-05-09T17:47:08.189Z,51.44
2019-05-09T17:52:26.425Z,52.67
2019-05-09T17:57:45.054Z,52.95
2019-05-09T18:03:03.706Z,53.82
2019-05-09T18:08:22.272Z,54.47
2019-05-09T18:13:40.988Z,56.26
2019-05-09T18:19:01.198Z,57.52
2019-05-09T18:24:19.883Z,57.82
2019-05-09T18:29:38.543Z,57.66
2019-05-09T18:35:13.980Z,58.55
2019-05-09T18:40:32.678Z,58.74
2019-05-09T18:45:51.390Z,58.90
2019-05-09T18:51:10.094Z,59.23
2019-05-09T18:56:28.696Z,59.33
2019-05-09T19:01:47.410Z,59.01
2019-05-09T19:07:21.132Z,59.13
2019-05-09T19:12:26.850Z,59.19
2019-05-09T19:17:47.203Z,59.89
2019-05-09T19:23:05.946Z,58.45
2019-05-09T19:28:24.570Z,58.16
2019-05-09T19:33:43.409Z,59.09
2019-05-09T19:39:02.074Z,59.83
2019-05-09T19:44:20.941Z,60.82
2019-05-09T19:49:39.662Z,61.64
2019-05-09T19:54:58.306Z,62.22
2019-05-09T20:00:17.395Z,63.43
2019-05-09T20:05:36.132Z,65.15
2019-05-09T20:11:05.656Z,66.05
2019-05-09T20:16:24.641Z,67.51
2019-05-09T20:21:43.581Z,69.01
2019-05-09T20:27:02.609Z,71.10
2019-05-09T20:32:21.543Z,72.28
2019-05-09T20:37:40.936Z,72.51
2019-05-09T20:42:59.720Z,72.98
2019-05-09T20:48:18.563Z,73.29
2019-05-09T20:53:37.365Z,73.58
2019-05-09T20:58:56.505Z,73.76
2019-05-09T21:04:15.403Z,74.17
2019-05-09T21:09:34.377Z,74.48
2019-05-09T21:14:53.562Z,74.80
2019-05-09T21:20:12.525Z,75.04
2019-05-09T21:25:33.469Z,75.18
2019-05-09T21:30:51.970Z,75.22
2019-05-09T21:36:10.682Z,75.37
2019-05-09T21:41:29.332Z,75.30
2019-05-09T21:46:47.908Z,75.23
2019-05-09T21:52:06.657Z,75.12
2019-05-09T21:57:25.357Z,75.62
2019-05-09T22:02:44.528Z,75.72
2019-05-09T22:08:03.142Z,75.63
2019-05-09T22:13:21.763Z,75.62
2019-05-09T22:18:40.476Z,75.62
2019-05-09T22:23:59.182Z,75.63
2019-05-09T22:29:17.833Z,75.69
2019-05-09T22:34:36.479Z,75.74
2019-05-09T22:39:55.160Z,75.96
2019-05-09T22:45:14.563Z,75.99
2019-05-09T22:50:33.183Z,75.91
2019-05-09T22:55:51.919Z,75.98
2019-05-09T23:01:10.716Z,75.97
2019-05-09T23:06:29.446Z,75.83
2019-05-09T23:11:48.275Z,75.74
2019-05-09T23:17:07.707Z,75.66
2019-05-09T23:22:28.026Z,75.27
2019-05-09T23:27:46.743Z,74.78
2019-05-09T23:33:05.451Z,74.56
2019-05-09T23:38:24.121Z,74.71
2019-05-09T23:43:42.805Z,75.04
2019-05-09T23:49:01.732Z,75.28
2019-05-09T23:54:48.051Z,75.25
